Time;durP1;ratioP1;P1;durP2;ratioP2;P2;SDS_P1;SDS_P2;PMS_P1;PMS_P2;Temp;Humidity;BMP_temperature;BMP_pressure;BME280_temperature;BME280_humidity;BME280_pressure;Samples;Min_cycle;Max_cycle;Signal;HPM_P1;HPM_P2
2023/04/03 00:00:39;;;;;;;3.75;1.92;;;;;;;;;;5323986;28;20028;-70
2023/04/03 00:03:11;;;;;;;4.40;2.13;;;;;;;;;;5323589;28;20012;-70
2023/04/03 00:05:42;;;;;;;5.13;2.40;;;;;;;;;;5323781;28;20458;-70
2023/04/03 00:08:13;;;;;;;4.38;1.85;;;;;;;;;;5323696;28;20047;-70
2023/04/03 00:10:44;;;;;;;3.45;2.28;;;;;;;;;;5323609;28;20041;-70
2023/04/03 00:13:16;;;;;;;3.55;2.13;;;;;;;;;;5324446;28;20020;-70
2023/04/03 00:15:47;;;;;;;4.18;2.75;;;;;;;;;;5322944;28;20118;-70
2023/04/03 00:18:18;;;;;;;4.00;2.13;;;;;;;;;;5324334;28;20016;-70
2023/04/03 00:20:49;;;;;;;5.28;2.08;;;;;;;;;;5323446;28;20020;-70
2023/04/03 00:23:23;;;;;;;2.95;1.88;;;;;;;;;;5326863;28;20397;-70
2023/04/03 00:25:55;;;;;;;2.97;2.05;;;;;;;;;;5328194;28;20028;-70
2023/04/03 00:28:26;;;;;;;3.58;2.05;;;;;;;;;;5328641;28;20019;-70
2023/04/03 00:30:57;;;;;;;3.20;2.17;;;;;;;;;;5327195;28;20501;-69
2023/04/03 00:33:29;;;;;;;2.90;1.65;;;;;;;;;;5328436;28;20024;-70
2023/04/03 00:36:05;;;;;;;2.20;1.60;;;;;;;;;;5327788;28;20107;-70
2023/04/03 00:38:36;;;;;;;3.42;1.90;;;;;;;;;;5328087;28;20027;-70
2023/04/03 00:41:07;;;;;;;3.42;2.17;;;;;;;;;;5328053;28;20455;-70
2023/04/03 00:43:39;;;;;;;4.65;1.88;;;;;;;;;;5326855;28;20012;-69
2023/04/03 00:46:10;;;;;;;3.13;1.80;;;;;;;;;;5328166;28;20167;-70
2023/04/03 00:48:45;;;;;;;4.78;2.00;;;;;;;;;;5327764;28;20031;-70
2023/04/03 00:51:19;;;;;;;2.35;1.83;;;;;;;;;;5327412;28;20016;-69
2023/04/03 00:53:53;;;;;;;4.20;1.92;;;;;;;;;;5327390;28;20048;-69
2023/04/03 00:56:25;;;;;;;3.10;1.88;;;;;;;;;;5327948;28;20024;-69
2023/04/03 00:59:03;;;;;;;3.92;1.83;;;;;;;;;;5326733;28;20019;-69
2023/04/03 01:01:35;;;;;;;3.75;1.60;;;;;;;;;;5327716;28;20077;-69
2023/04/03 01:04:26;;;;;;;4.10;1.65;;;;;;;;;;5327284;28;20015;-69
2023/04/03 01:07:00;;;;;;;3.88;1.70;;;;;;;;;;5327150;28;20027;-70
2023/04/03 01:09:32;;;;;;;3.88;1.65;;;;;;;;;;5327518;28;20055;-71
2023/04/03 01:12:30;;;;;;;3.08;1.85;;;;;;;;;;5326757;28;20047;-70
2023/04/03 01:15:03;;;;;;;4.47;1.98;;;;;;;;;;5323036;28;20126;-70
2023/04/03 01:17:36;;;;;;;3.28;1.75;;;;;;;;;;5327122;28;20481;-70
2023/04/03 01:20:07;;;;;;;4.07;1.55;;;;;;;;;;5326537;28;20028;-70
2023/04/03 01:22:47;;;;;;;3.62;1.64;;;;;;;;;;5327015;28;20031;-71
2023/04/03 01:25:18;;;;;;;4.93;1.58;;;;;;;;;;5326701;28;20469;-70
2023/04/03 01:27:49;;;;;;;3.15;1.77;;;;;;;;;;5326823;28;20016;-70
2023/04/03 01:30:23;;;;;;;4.50;2.38;;;;;;;;;;5327489;28;20023;-70
2023/04/03 01:32:54;;;;;;;4.28;1.75;;;;;;;;;;5325717;28;20023;-70
2023/04/03 01:35:26;;;;;;;3.05;1.65;;;;;;;;;;5326182;28;20031;-70
2023/04/03 01:37:57;;;;;;;4.28;2.17;;;;;;;;;;5326722;28;20500;-70
2023/04/03 01:40:28;;;;;;;2.92;1.58;;;;;;;;;;5326581;28;20020;-69
2023/04/03 01:42:59;;;;;;;3.60;2.03;;;;;;;;;;5326509;28;20012;-69
2023/04/03 01:45:30;;;;;;;3.35;1.65;;;;;;;;;;5326824;28;20019;-70
2023/04/03 01:48:02;;;;;;;3.72;1.55;;;;;;;;;;5325859;28;20030;-70
2023/04/03 01:50:33;;;;;;;4.63;1.52;;;;;;;;;;5326596;28;20019;-70
2023/04/03 01:53:04;;;;;;;3.97;2.13;;;;;;;;;;5326548;28;20035;-69
2023/04/03 01:55:35;;;;;;;3.45;1.83;;;;;;;;;;5325790;28;20077;-70
2023/04/03 01:58:06;;;;;;;3.97;1.92;;;;;;;;;;5326484;28;20106;-69
2023/04/03 02:00:38;;;;;;;3.85;2.10;;;;;;;;;;5325388;28;20481;-69
2023/04/03 02:03:09;;;;;;;3.42;2.13;;;;;;;;;;5326660;28;20529;-69
2023/04/03 02:05:40;;;;;;;4.63;2.22;;;;;;;;;;5326300;28;20046;-69
2023/04/03 02:08:12;;;;;;;3.05;2.47;;;;;;;;;;5325934;28;20035;-70
2023/04/03 02:10:46;;;;;;;4.70;2.30;;;;;;;;;;5326102;28;20489;-69
2023/04/03 02:13:17;;;;;;;4.18;2.38;;;;;;;;;;5326455;28;20016;-69
2023/04/03 02:15:49;;;;;;;5.35;2.08;;;;;;;;;;5324895;28;20035;-70
2023/04/03 02:18:20;;;;;;;3.58;2.02;;;;;;;;;;5326593;28;20149;-69
2023/04/03 02:20:51;;;;;;;3.38;2.15;;;;;;;;;;5325797;28;20028;-69
2023/04/03 02:23:22;;;;;;;4.05;2.20;;;;;;;;;;5325529;28;20012;-69
2023/04/03 02:26:01;;;;;;;4.78;1.85;;;;;;;;;;5325591;28;20012;-69
2023/04/03 02:28:33;;;;;;;3.90;2.10;;;;;;;;;;5325354;28;20076;-70
2023/04/03 02:31:06;;;;;;;5.70;2.42;;;;;;;;;;5325964;28;20004;-69
2023/04/03 02:33:37;;;;;;;3.92;2.30;;;;;;;;;;5325702;28;20422;-69
2023/04/03 02:36:08;;;;;;;3.95;1.85;;;;;;;;;;5325064;28;20031;-69
2023/04/03 02:38:40;;;;;;;4.65;2.28;;;;;;;;;;5325323;28;20027;-70
2023/04/03 02:41:11;;;;;;;5.32;2.22;;;;;;;;;;5326112;28;20069;-70
2023/04/03 02:43:43;;;;;;;3.25;1.95;;;;;;;;;;5324552;28;20023;-69
2023/04/03 02:46:15;;;;;;;3.80;1.98;;;;;;;;;;5325615;28;20011;-70
2023/04/03 02:48:46;;;;;;;3.22;1.83;;;;;;;;;;5324977;28;20031;-70
2023/04/03 02:51:17;;;;;;;2.67;2.03;;;;;;;;;;5325181;28;20059;-69
2023/04/03 02:53:49;;;;;;;4.00;2.08;;;;;;;;;;5324824;28;20052;-69
2023/04/03 02:56:21;;;;;;;2.88;1.70;;;;;;;;;;5325685;28;20027;-69
2023/04/03 02:58:52;;;;;;;3.67;1.67;;;;;;;;;;5324297;28;20018;-69
2023/04/03 03:01:23;;;;;;;4.60;1.95;;;;;;;;;;5325387;28;20030;-69
2023/04/03 03:03:55;;;;;;;2.88;1.48;;;;;;;;;;5323963;28;20016;-69
2023/04/03 03:06:26;;;;;;;3.17;2.05;;;;;;;;;;5325345;28;20458;-70
2023/04/03 03:08:57;;;;;;;3.05;1.58;;;;;;;;;;5324898;28;20480;-70
2023/04/03 03:11:29;;;;;;;3.03;1.45;;;;;;;;;;5324599;28;20019;-69
2023/04/03 03:14:00;;;;;;;4.53;1.92;;;;;;;;;;5324693;28;20043;-70
2023/04/03 03:16:31;;;;;;;4.70;1.73;;;;;;;;;;5325078;28;20036;-70
2023/04/03 03:19:03;;;;;;;4.22;1.98;;;;;;;;;;5324199;28;20020;-69
2023/04/03 03:21:34;;;;;;;5.18;1.80;;;;;;;;;;5324909;28;20035;-70
2023/04/03 03:24:05;;;;;;;5.18;1.73;;;;;;;;;;5324756;28;20023;-70
2023/04/03 03:26:36;;;;;;;3.83;1.45;;;;;;;;;;5323898;28;20466;-70
2023/04/03 03:29:07;;;;;;;2.33;1.10;;;;;;;;;;5324843;28;20019;-70
2023/04/03 03:31:39;;;;;;;2.50;1.52;;;;;;;;;;5324472;28;20025;-70
2023/04/03 03:34:10;;;;;;;2.67;1.17;;;;;;;;;;5324167;28;20019;-70
2023/04/03 03:36:41;;;;;;;2.63;1.20;;;;;;;;;;5324170;28;20102;-70
2023/04/03 03:39:12;;;;;;;3.30;1.45;;;;;;;;;;5324212;28;20055;-70
2023/04/03 03:41:44;;;;;;;3.55;1.52;;;;;;;;;;5324026;28;20031;-70
2023/04/03 03:44:15;;;;;;;2.63;1.38;;;;;;;;;;5324854;28;20016;-70
2023/04/03 03:46:46;;;;;;;3.42;1.00;;;;;;;;;;5323385;28;20110;-69
2023/04/03 03:49:18;;;;;;;2.65;0.95;;;;;;;;;;5324538;28;20020;-69
2023/04/03 03:51:49;;;;;;;3.53;1.15;;;;;;;;;;5323901;28;20023;-69
2023/04/03 03:54:20;;;;;;;3.75;0.98;;;;;;;;;;5323528;28;20092;-69
2023/04/03 03:56:52;;;;;;;3.35;1.23;;;;;;;;;;5323413;28;20540;-69
2023/04/03 03:59:23;;;;;;;3.92;1.76;;;;;;;;;;5324521;28;20069;-69
2023/04/03 04:01:55;;;;;;;3.85;1.33;;;;;;;;;;5322958;28;20088;-70
2023/04/03 04:04:26;;;;;;;4.18;1.27;;;;;;;;;;5324605;28;20051;-70
2023/04/03 04:06:57;;;;;;;2.28;1.20;;;;;;;;;;5323619;28;20070;-69
2023/04/03 04:09:28;;;;;;;2.95;1.10;;;;;;;;;;5323899;28;20018;-70
2023/04/03 04:11:59;;;;;;;4.03;1.02;;;;;;;;;;5323772;28;20093;-70
2023/04/03 04:14:31;;;;;;;5.78;1.05;;;;;;;;;;5323186;28;20454;-70
2023/04/03 04:17:02;;;;;;;4.97;1.20;;;;;;;;;;5324137;28;20110;-70
2023/04/03 04:19:33;;;;;;;3.67;0.93;;;;;;;;;;5323905;28;20059;-69
2023/04/03 04:22:04;;;;;;;3.90;1.20;;;;;;;;;;5323017;28;20015;-69
2023/04/03 04:24:35;;;;;;;3.22;1.00;;;;;;;;;;5323855;28;20019;-70
2023/04/03 04:27:07;;;;;;;3.40;0.97;;;;;;;;;;5324054;28;20015;-69
2023/04/03 04:29:38;;;;;;;2.75;0.63;;;;;;;;;;5323095;28;20155;-70
2023/04/03 04:32:09;;;;;;;3.33;1.10;;;;;;;;;;5324252;28;20019;-68
2023/04/03 04:34:41;;;;;;;2.28;0.70;;;;;;;;;;5323573;28;20024;-69
2023/04/03 04:37:12;;;;;;;2.90;0.68;;;;;;;;;;5323127;28;20023;-69
2023/04/03 04:39:43;;;;;;;4.27;0.70;;;;;;;;;;5323626;28;20016;-69
2023/04/03 04:42:14;;;;;;;3.43;0.73;;;;;;;;;;5323306;28;20011;-70
2023/04/03 04:44:46;;;;;;;3.03;0.70;;;;;;;;;;5323482;28;20024;-69
2023/04/03 04:47:17;;;;;;;3.47;0.60;;;;;;;;;;5324010;28;20012;-69
2023/04/03 04:49:48;;;;;;;2.45;0.80;;;;;;;;;;5322502;28;20373;-69
2023/04/03 04:52:19;;;;;;;3.67;0.70;;;;;;;;;;5323647;28;20048;-70
2023/04/03 04:54:50;;;;;;;2.42;0.60;;;;;;;;;;5323361;28;20474;-70
2023/04/03 04:57:21;;;;;;;2.40;0.73;;;;;;;;;;5322896;28;20161;-69
2023/04/03 04:59:53;;;;;;;2.67;0.60;;;;;;;;;;5323132;28;20462;-69
2023/04/03 05:02:24;;;;;;;2.90;0.80;;;;;;;;;;5323670;28;20385;-69
2023/04/03 05:04:55;;;;;;;2.85;0.75;;;;;;;;;;5322376;28;20027;-70
2023/04/03 05:07:26;;;;;;;2.90;0.70;;;;;;;;;;5323706;28;20107;-69
2023/04/03 05:09:57;;;;;;;2.97;0.67;;;;;;;;;;5326766;28;20035;-69
2023/04/03 05:12:29;;;;;;;6.47;0.70;;;;;;;;;;5326758;28;20103;-69
2023/04/03 05:15:00;;;;;;;3.10;0.70;;;;;;;;;;5327217;28;20034;-70
2023/04/03 05:17:31;;;;;;;2.93;0.90;;;;;;;;;;5326763;28;20350;-70
2023/04/03 05:20:04;;;;;;;3.87;0.77;;;;;;;;;;5327255;28;20016;-69
2023/04/03 05:22:35;;;;;;;3.93;0.80;;;;;;;;;;5327141;28;20015;-69
2023/04/03 05:25:06;;;;;;;2.03;0.60;;;;;;;;;;5326037;28;20032;-70
2023/04/03 05:27:37;;;;;;;4.03;0.80;;;;;;;;;;5326803;28;20450;-71
2023/04/03 05:30:09;;;;;;;6.20;0.77;;;;;;;;;;5327298;28;20403;-70
2023/04/03 05:32:41;;;;;;;2.90;0.60;;;;;;;;;;5325774;28;20022;-70
2023/04/03 05:35:12;;;;;;;2.70;0.60;;;;;;;;;;5327061;28;20521;-70
2023/04/03 05:37:43;;;;;;;3.23;0.53;;;;;;;;;;5326252;28;20045;-70
2023/04/03 05:40:14;;;;;;;1.87;0.77;;;;;;;;;;5326324;28;20449;-70
2023/04/03 05:42:46;;;;;;;4.13;0.70;;;;;;;;;;5326664;28;20023;-69
2023/04/03 05:45:17;;;;;;;2.97;0.70;;;;;;;;;;5327035;28;20028;-69
2023/04/03 05:47:48;;;;;;;4.35;0.60;;;;;;;;;;5325598;28;20413;-69
2023/04/03 05:50:19;;;;;;;1.95;0.57;;;;;;;;;;5326844;28;20077;-69
2023/04/03 05:52:52;;;;;;;3.78;0.70;;;;;;;;;;5325486;28;20055;-69
2023/04/03 05:55:23;;;;;;;3.00;0.88;;;;;;;;;;5326957;28;20023;-70
2023/04/03 05:57:54;;;;;;;2.47;0.60;;;;;;;;;;5326221;28;20023;-70
2023/04/03 06:00:25;;;;;;;5.68;0.63;;;;;;;;;;5325937;28;20073;-71
2023/04/03 06:02:56;;;;;;;7.32;0.80;;;;;;;;;;5326052;28;20110;-70
2023/04/03 06:05:28;;;;;;;3.35;0.70;;;;;;;;;;5326386;28;20023;-69
2023/04/03 06:07:59;;;;;;;3.40;0.60;;;;;;;;;;5324988;28;20454;-69
2023/04/03 06:10:30;;;;;;;2.20;0.80;;;;;;;;;;5326199;28;20072;-69
2023/04/03 06:13:02;;;;;;;2.58;0.50;;;;;;;;;;5326080;28;20016;-71
2023/04/03 06:15:33;;;;;;;3.00;0.50;;;;;;;;;;5325314;28;20131;-71
2023/04/03 06:18:05;;;;;;;3.63;0.95;;;;;;;;;;5325925;28;20090;-70
2023/04/03 06:20:36;;;;;;;4.07;0.50;;;;;;;;;;5324774;28;20016;-70
2023/04/03 06:23:07;;;;;;;4.25;0.50;;;;;;;;;;5319332;28;20019;-70
2023/04/03 06:25:38;;;;;;;5.07;0.65;;;;;;;;;;5304283;28;20020;-68
2023/04/03 06:28:10;;;;;;;2.17;0.60;;;;;;;;;;5303928;28;20020;-69
2023/04/03 06:30:41;;;;;;;2.75;0.50;;;;;;;;;;5304373;28;20462;-70
2023/04/03 06:33:12;;;;;;;2.72;0.45;;;;;;;;;;5304793;28;20079;-69
2023/04/03 06:35:43;;;;;;;3.33;0.50;;;;;;;;;;5303341;28;20024;-70
2023/04/03 06:38:15;;;;;;;1.75;0.40;;;;;;;;;;5304823;28;20043;-69
2023/04/03 06:40:46;;;;;;;3.20;0.45;;;;;;;;;;5303377;28;20150;-70
2023/04/03 06:43:18;;;;;;;2.67;0.50;;;;;;;;;;5303917;28;20457;-68
2023/04/03 06:45:49;;;;;;;5.68;0.55;;;;;;;;;;5303816;28;20035;-70
2023/04/03 06:48:20;;;;;;;2.72;0.50;;;;;;;;;;5300475;28;20075;-69
2023/04/03 06:50:52;;;;;;;2.78;0.50;;;;;;;;;;5302473;28;20076;-69
2023/04/03 06:53:23;;;;;;;2.58;0.50;;;;;;;;;;5304383;28;20051;-71
2023/04/03 06:55:55;;;;;;;1.83;0.45;;;;;;;;;;5302823;28;20036;-70
2023/04/03 06:58:26;;;;;;;1.73;0.60;;;;;;;;;;5304157;28;20016;-70
2023/04/03 07:00:57;;;;;;;3.17;0.63;;;;;;;;;;5301192;28;20095;-71
2023/04/03 07:03:28;;;;;;;2.80;0.95;;;;;;;;;;5302780;28;20020;-70
2023/04/03 07:05:59;;;;;;;4.43;0.40;;;;;;;;;;5303657;28;20099;-70
2023/04/03 07:08:31;;;;;;;1.50;0.40;;;;;;;;;;5303801;28;20015;-70
2023/04/03 07:11:02;;;;;;;2.25;0.50;;;;;;;;;;5302935;28;20024;-70
2023/04/03 07:13:33;;;;;;;3.28;0.73;;;;;;;;;;5303740;28;20432;-69
2023/04/03 07:16:05;;;;;;;3.80;0.60;;;;;;;;;;5303797;28;20036;-69
2023/04/03 07:18:37;;;;;;;2.90;0.70;;;;;;;;;;5302621;28;20027;-69
2023/04/03 07:21:08;;;;;;;3.15;0.50;;;;;;;;;;5303253;28;20463;-69
2023/04/03 07:23:39;;;;;;;4.40;1.10;;;;;;;;;;5303033;28;20463;-70
2023/04/03 07:26:10;;;;;;;4.53;0.85;;;;;;;;;;5303083;28;20024;-69
2023/04/03 07:28:43;;;;;;;3.38;0.50;;;;;;;;;;5302689;28;20028;-69
2023/04/03 07:31:16;;;;;;;2.88;0.40;;;;;;;;;;5302492;28;20012;-69
2023/04/03 07:33:47;;;;;;;2.42;0.43;;;;;;;;;;5302698;28;20087;-69
2023/04/03 07:36:20;;;;;;;4.13;0.73;;;;;;;;;;5302863;28;20168;-69
2023/04/03 07:38:51;;;;;;;2.85;0.40;;;;;;;;;;5302219;28;20016;-70
2023/04/03 07:41:22;;;;;;;3.28;0.85;;;;;;;;;;5303274;28;20031;-70
2023/04/03 07:43:54;;;;;;;1.83;0.40;;;;;;;;;;5302570;28;20020;-70
2023/04/03 07:46:25;;;;;;;3.95;0.52;;;;;;;;;;5302389;28;20012;-70
2023/04/03 07:48:57;;;;;;;3.10;0.70;;;;;;;;;;5302640;28;20394;-70
2023/04/03 07:51:29;;;;;;;3.63;0.50;;;;;;;;;;5315718;28;20590;-70
2023/04/03 07:54:00;;;;;;;4.57;0.70;;;;;;;;;;5323000;28;20075;-70
2023/04/03 07:56:32;;;;;;;3.20;0.70;;;;;;;;;;5300597;28;20150;-71
2023/04/03 07:59:03;;;;;;;3.10;0.50;;;;;;;;;;5307025;28;20020;-71
2023/04/03 08:01:34;;;;;;;3.35;0.60;;;;;;;;;;5330397;27;20015;-72
2023/04/03 08:04:06;;;;;;;1.55;0.40;;;;;;;;;;5344186;27;20011;-71
2023/04/03 08:06:37;;;;;;;2.55;0.40;;;;;;;;;;5343166;27;20091;-70
2023/04/03 08:09:09;;;;;;;1.88;0.50;;;;;;;;;;5344341;27;20019;-70
2023/04/03 08:11:40;;;;;;;2.88;0.50;;;;;;;;;;5343462;27;20016;-70
2023/04/03 08:14:16;;;;;;;2.42;0.50;;;;;;;;;;5344307;28;20019;-70
2023/04/03 08:16:48;;;;;;;3.85;0.50;;;;;;;;;;5343473;28;20026;-70
2023/04/03 08:19:19;;;;;;;3.05;0.40;;;;;;;;;;5332611;28;20422;-69
2023/04/03 08:21:50;;;;;;;2.60;0.40;;;;;;;;;;5305338;28;20016;-69
2023/04/03 08:24:22;;;;;;;2.83;0.63;;;;;;;;;;5302076;28;20131;-69
2023/04/03 08:26:53;;;;;;;2.58;0.57;;;;;;;;;;5298011;28;20091;-69
2023/04/03 08:29:25;;;;;;;3.78;0.70;;;;;;;;;;5305034;28;20323;-70
2023/04/03 08:31:56;;;;;;;2.80;0.50;;;;;;;;;;5301271;28;20091;-69
2023/04/03 08:34:27;;;;;;;3.97;0.60;;;;;;;;;;5301170;28;20035;-69
2023/04/03 08:36:58;;;;;;;1.55;0.63;;;;;;;;;;5301071;28;20024;-69
2023/04/03 08:39:30;;;;;;;4.45;0.60;;;;;;;;;;5301152;28;20048;-70
2023/04/03 08:42:04;;;;;;;2.17;0.50;;;;;;;;;;5300501;28;20479;-70
2023/04/03 08:44:45;;;;;;;3.10;0.40;;;;;;;;;;5301382;28;20085;-70
2023/04/03 08:47:16;;;;;;;3.85;0.60;;;;;;;;;;5327234;28;20095;-69
2023/04/03 08:49:51;;;;;;;2.42;0.40;;;;;;;;;;5325882;28;20338;-68
2023/04/03 08:52:35;;;;;;;2.50;0.50;;;;;;;;;;5325709;28;20859;-68
2023/04/03 08:55:12;;;;;;;4.68;0.50;;;;;;;;;;5325994;28;20042;-68
2023/04/03 08:57:44;;;;;;;1.80;0.30;;;;;;;;;;5325753;28;20020;-69
2023/04/03 09:00:17;;;;;;;3.47;0.30;;;;;;;;;;5327833;28;20015;-68
2023/04/03 09:02:50;;;;;;;1.48;0.30;;;;;;;;;;5326393;28;20468;-69
2023/04/03 09:05:21;;;;;;;2.75;0.40;;;;;;;;;;5326878;28;20018;-70
2023/04/03 09:08:00;;;;;;;2.85;0.40;;;;;;;;;;5327041;28;20015;-69
2023/04/03 09:10:33;;;;;;;0.80;0.20;;;;;;;;;;5326817;28;20325;-69
2023/04/03 09:13:21;;;;;;;2.35;0.30;;;;;;;;;;5327360;28;20377;-69
2023/04/03 09:15:53;;;;;;;1.42;0.30;;;;;;;;;;5326894;28;20038;-69
2023/04/03 09:18:28;;;;;;;1.70;0.30;;;;;;;;;;5326722;28;20035;-70
2023/04/03 09:20:59;;;;;;;1.05;0.20;;;;;;;;;;5326893;28;20099;-69
2023/04/03 09:23:41;;;;;;;0.70;0.20;;;;;;;;;;5326585;28;20090;-69
2023/04/03 09:26:16;;;;;;;2.20;0.20;;;;;;;;;;5327347;28;20027;-69
2023/04/03 09:28:47;;;;;;;1.63;0.20;;;;;;;;;;5327006;28;20110;-69
2023/04/03 09:31:20;;;;;;;0.90;0.10;;;;;;;;;;5326580;28;20098;-69
2023/04/03 09:33:59;;;;;;;2.33;0.30;;;;;;;;;;5326944;28;20028;-70
2023/04/03 09:36:37;;;;;;;0.57;0.10;;;;;;;;;;5326797;28;20028;-70
2023/04/03 09:39:13;;;;;;;0.90;0.20;;;;;;;;;;5326274;28;20030;-69
2023/04/03 09:42:01;;;;;;;1.50;0.20;;;;;;;;;;5326778;28;20023;-70
2023/04/03 09:44:35;;;;;;;1.45;0.20;;;;;;;;;;5326706;28;20020;-70
2023/04/03 09:47:24;;;;;;;1.55;0.20;;;;;;;;;;5326417;28;20030;-70
2023/04/03 09:50:14;;;;;;;2.53;0.20;;;;;;;;;;5326240;28;20467;-70
2023/04/03 09:52:46;;;;;;;1.92;0.30;;;;;;;;;;5325457;28;20052;-70
2023/04/03 09:55:20;;;;;;;1.05;0.20;;;;;;;;;;5325859;28;20063;-70
2023/04/03 09:57:52;;;;;;;0.82;0.20;;;;;;;;;;5326121;28;20020;-70
2023/04/03 10:00:25;;;;;;;2.28;0.20;;;;;;;;;;5325862;28;20025;-70
2023/04/03 10:02:57;;;;;;;0.90;0.20;;;;;;;;;;5326077;28;20496;-71
2023/04/03 10:05:31;;;;;;;1.40;0.20;;;;;;;;;;5325933;28;20019;-71
2023/04/03 10:08:09;;;;;;;0.93;0.22;;;;;;;;;;5325305;28;20055;-72
2023/04/03 10:10:41;;;;;;;0.65;0.20;;;;;;;;;;5325854;28;20016;-71
2023/04/03 10:13:16;;;;;;;0.85;0.20;;;;;;;;;;5326019;28;20374;-71
2023/04/03 10:16:06;;;;;;;0.82;0.20;;;;;;;;;;5325809;28;20431;-70
2023/04/03 10:18:56;;;;;;;3.60;0.20;;;;;;;;;;5325849;28;20020;-70
2023/04/03 10:21:46;;;;;;;0.77;0.10;;;;;;;;;;5325693;28;20023;-70
2023/04/03 10:24:17;;;;;;;0.45;0.13;;;;;;;;;;5325980;28;20498;-70
2023/04/03 10:26:51;;;;;;;2.17;0.10;;;;;;;;;;5324761;28;20031;-71
2023/04/03 10:29:31;;;;;;;0.77;0.20;;;;;;;;;;5325949;28;20549;-70
2023/04/03 10:32:11;;;;;;;1.85;0.15;;;;;;;;;;5325981;28;20046;-71
2023/04/03 10:34:43;;;;;;;0.85;0.10;;;;;;;;;;5324381;28;20598;-71
2023/04/03 10:37:28;;;;;;;1.33;0.22;;;;;;;;;;5325753;28;20426;-71
2023/04/03 10:40:09;;;;;;;0.88;0.20;;;;;;;;;;5325114;28;20371;-72
2023/04/03 10:42:50;;;;;;;1.65;0.30;;;;;;;;;;5324488;28;20022;-71
2023/04/03 10:45:29;;;;;;;0.80;0.13;;;;;;;;;;5325092;28;20024;-70
2023/04/03 10:48:00;;;;;;;1.25;0.20;;;;;;;;;;5324340;28;20065;-71
2023/04/03 10:50:38;;;;;;;1.25;0.10;;;;;;;;;;5325461;28;20059;-70
2023/04/03 10:53:23;;;;;;;1.75;0.22;;;;;;;;;;5325502;28;20285;-70
2023/04/03 10:56:12;;;;;;;0.98;0.20;;;;;;;;;;5324119;28;20035;-71
2023/04/03 10:58:44;;;;;;;;;;;;;;;;;;5325406;28;20012;-71
2023/04/03 11:01:24;;;;;;;2.45;0.10;;;;;;;;;;5325386;28;19904;-71
2023/04/03 11:03:57;;;;;;;2.05;0.13;;;;;;;;;;5324011;28;20416;-72
2023/04/03 11:06:36;;;;;;;0.95;0.20;;;;;;;;;;5317061;28;20039;-70
2023/04/03 11:09:15;;;;;;;1.70;0.10;;;;;;;;;;5301988;28;20031;-70
2023/04/03 11:11:47;;;;;;;0.73;0.10;;;;;;;;;;5303369;28;20360;-70
2023/04/03 11:14:25;;;;;;;1.00;0.20;;;;;;;;;;5303527;28;20097;-70
2023/04/03 11:17:08;;;;;;;0.55;0.20;;;;;;;;;;5301819;28;20020;-69
2023/04/03 11:19:47;;;;;;;1.73;0.20;;;;;;;;;;5303230;28;20050;-71
2023/04/03 11:22:19;;;;;;;0.98;0.20;;;;;;;;;;5303096;28;20024;-70
2023/04/03 11:25:03;;;;;;;1.23;0.20;;;;;;;;;;5301611;28;20047;-70
2023/04/03 11:27:40;;;;;;;0.60;0.10;;;;;;;;;;5303141;28;20103;-71
2023/04/03 11:30:18;;;;;;;1.67;0.20;;;;;;;;;;5302293;28;20024;-71
2023/04/03 11:33:13;;;;;;;0.93;0.20;;;;;;;;;;5303040;28;20119;-71
2023/04/03 11:35:46;;;;;;;1.23;0.10;;;;;;;;;;5302908;28;20027;-71
2023/04/03 11:38:26;;;;;;;1.33;0.30;;;;;;;;;;5302789;28;20363;-71
2023/04/03 11:40:58;;;;;;;1.67;0.20;;;;;;;;;;5302747;28;20388;-71
2023/04/03 11:43:30;;;;;;;0.60;0.10;;;;;;;;;;5302875;28;20018;-71
2023/04/03 11:46:03;;;;;;;0.70;0.10;;;;;;;;;;5301986;28;20534;-70
2023/04/03 11:48:34;;;;;;;1.00;0.10;;;;;;;;;;5302474;28;20382;-70
2023/04/03 11:51:20;;;;;;;2.10;0.20;;;;;;;;;;5302708;28;20026;-70
2023/04/03 11:53:51;;;;;;;0.68;0.10;;;;;;;;;;5302225;28;20055;-71
2023/04/03 11:56:22;;;;;;;0.70;0.10;;;;;;;;;;5302759;28;20475;-70
2023/04/03 11:59:03;;;;;;;1.50;0.20;;;;;;;;;;5301561;28;20032;-72
2023/04/03 12:01:53;;;;;;;2.08;0.68;;;;;;;;;;5302759;28;20270;-72
2023/04/03 12:04:26;;;;;;;0.57;0.10;;;;;;;;;;5302863;28;20031;-70
2023/04/03 12:07:04;;;;;;;1.67;0.10;;;;;;;;;;5301240;28;20020;-70
2023/04/03 12:09:55;;;;;;;1.65;0.10;;;;;;;;;;5302441;28;20027;-70
2023/04/03 12:12:31;;;;;;;0.63;0.20;;;;;;;;;;5301666;28;20016;-70
2023/04/03 12:15:41;;;;;;;0.45;0.10;;;;;;;;;;5302236;28;20474;-70
2023/04/03 12:18:31;;;;;;;0.93;0.10;;;;;;;;;;5237095;28;20041;-70
2023/04/03 12:21:03;;;;;;;2.65;0.20;;;;;;;;;;5236502;28;20021;-70
2023/04/03 12:23:36;;;;;;;1.67;0.20;;;;;;;;;;5281241;28;20031;-70
2023/04/03 12:26:27;;;;;;;0.80;0.20;;;;;;;;;;5302083;28;20102;-69
2023/04/03 12:28:58;;;;;;;0.93;0.20;;;;;;;;;;5301946;28;20139;-69
2023/04/03 12:31:37;;;;;;;0.90;0.20;;;;;;;;;;5302404;28;20194;-70
2023/04/03 12:34:31;;;;;;;0.40;0.17;;;;;;;;;;5301992;28;20024;-70
2023/04/03 12:37:20;;;;;;;0.70;0.32;;;;;;;;;;5300790;28;20039;-71
2023/04/03 12:39:59;;;;;;;0.68;0.20;;;;;;;;;;5300751;28;20032;-70
2023/04/03 12:42:34;;;;;;;1.58;0.20;;;;;;;;;;5301869;28;20078;-71
2023/04/03 12:45:17;;;;;;;0.93;0.20;;;;;;;;;;5302284;28;20382;-71
2023/04/03 12:47:50;;;;;;;0.82;0.30;;;;;;;;;;5301575;28;20024;-70
2023/04/03 12:50:29;;;;;;;0.90;0.20;;;;;;;;;;5302508;28;20375;-70
2023/04/03 12:53:01;;;;;;;;;;;;;;;;;;5302575;28;20453;-70
2023/04/03 12:55:32;;;;;;;1.20;0.17;;;;;;;;;;5301862;28;20014;-71
2023/04/03 12:58:22;;;;;;;1.13;0.20;;;;;;;;;;5301968;28;20020;-70
2023/04/03 13:01:01;;;;;;;2.03;0.20;;;;;;;;;;5301127;28;20497;-70
2023/04/03 13:03:32;;;;;;;1.08;0.20;;;;;;;;;;5298255;28;20152;-71
2023/04/03 13:06:03;;;;;;;0.60;0.20;;;;;;;;;;5300232;28;20049;-71
2023/04/03 13:08:35;;;;;;;1.70;0.20;;;;;;;;;;5299588;28;20375;-71
2023/04/03 13:11:10;;;;;;;0.93;0.30;;;;;;;;;;5300328;28;20028;-70
2023/04/03 13:13:53;;;;;;;1.05;0.20;;;;;;;;;;5300124;28;20027;-70
2023/04/03 13:16:25;;;;;;;0.90;0.20;;;;;;;;;;5299875;28;20039;-70
2023/04/03 13:18:56;;;;;;;1.88;0.32;;;;;;;;;;5299536;28;20379;-70
2023/04/03 13:21:29;;;;;;;1.73;0.30;;;;;;;;;;5301991;28;20408;-68
2023/04/03 13:24:02;;;;;;;1.95;0.20;;;;;;;;;;5301252;28;20020;-71
2023/04/03 13:26:33;;;;;;;0.68;0.17;;;;;;;;;;5301649;28;20031;-70
2023/04/03 13:29:06;;;;;;;1.23;0.28;;;;;;;;;;5301599;28;20016;-69
2023/04/03 13:31:38;;;;;;;1.38;0.20;;;;;;;;;;5304163;28;20370;-70
2023/04/03 13:34:10;;;;;;;1.35;0.20;;;;;;;;;;5304458;28;20072;-71
2023/04/03 13:36:46;;;;;;;2.83;0.25;;;;;;;;;;5304753;28;20107;-71
2023/04/03 13:39:17;;;;;;;1.73;0.20;;;;;;;;;;5304859;28;20027;-70
2023/04/03 13:41:49;;;;;;;1.92;0.20;;;;;;;;;;5305110;28;20192;-69
2023/04/03 13:44:21;;;;;;;1.92;0.20;;;;;;;;;;5305225;28;20266;-70
2023/04/03 13:46:56;;;;;;;0.75;0.20;;;;;;;;;;5305100;28;20498;-70
2023/04/03 13:49:38;;;;;;;1.58;0.40;;;;;;;;;;5305586;28;20470;-70
2023/04/03 13:52:25;;;;;;;1.63;0.20;;;;;;;;;;5304984;28;20024;-69
2023/04/03 13:55:01;;;;;;;1.00;0.20;;;;;;;;;;5304985;28;20092;-70
2023/04/03 13:57:33;;;;;;;1.77;0.25;;;;;;;;;;5305253;28;20012;-70
2023/04/03 14:00:21;;;;;;;1.48;0.32;;;;;;;;;;5304466;28;20478;-70
2023/04/03 14:02:54;;;;;;;0.75;0.20;;;;;;;;;;5304857;28;20236;-72
2023/04/03 14:05:26;;;;;;;2.25;0.40;;;;;;;;;;5304725;28;20024;-71
2023/04/03 14:07:58;;;;;;;3.97;0.40;;;;;;;;;;5304776;28;20016;-71
2023/04/03 14:10:30;;;;;;;1.40;0.30;;;;;;;;;;5305139;28;20012;-71
2023/04/03 14:13:01;;;;;;;1.92;0.40;;;;;;;;;;5304237;28;20016;-70
2023/04/03 14:15:33;;;;;;;1.10;0.25;;;;;;;;;;5305153;28;20051;-70
2023/04/03 14:18:04;;;;;;;3.15;0.30;;;;;;;;;;5304910;28;20020;-70
2023/04/03 14:20:35;;;;;;;2.88;0.40;;;;;;;;;;5303950;28;20066;-70
2023/04/03 14:23:06;;;;;;;1.25;0.30;;;;;;;;;;5304803;28;20059;-70
2023/04/03 14:25:38;;;;;;;1.02;0.30;;;;;;;;;;5304514;28;20073;-70
2023/04/03 14:28:19;;;;;;;2.05;0.30;;;;;;;;;;5304379;28;20019;-72
2023/04/03 14:30:50;;;;;;;1.25;0.30;;;;;;;;;;5304351;28;20028;-70
2023/04/03 14:33:21;;;;;;;2.45;0.52;;;;;;;;;;5303904;28;20032;-69
2023/04/03 14:35:53;;;;;;;1.15;0.30;;;;;;;;;;5304273;28;20036;-70
2023/04/03 14:38:25;;;;;;;1.65;0.40;;;;;;;;;;5304837;28;20096;-70
2023/04/03 14:40:57;;;;;;;1.50;0.30;;;;;;;;;;5303049;28;20028;-70
2023/04/03 14:43:28;;;;;;;1.45;0.22;;;;;;;;;;5304390;28;20020;-70
2023/04/03 14:46:00;;;;;;;2.47;0.30;;;;;;;;;;5304127;28;20015;-70
2023/04/03 14:48:31;;;;;;;2.88;0.35;;;;;;;;;;5303570;28;20013;-71
2023/04/03 14:51:02;;;;;;;1.92;0.30;;;;;;;;;;5304000;28;20028;-70
2023/04/03 14:53:34;;;;;;;1.83;0.40;;;;;;;;;;5303929;28;20406;-71
2023/04/03 14:56:26;;;;;;;1.52;0.30;;;;;;;;;;5302883;28;20024;-70
2023/04/03 14:58:58;;;;;;;1.48;0.30;;;;;;;;;;5303876;28;20017;-70
2023/04/03 15:01:29;;;;;;;1.20;0.32;;;;;;;;;;5303395;28;20031;-71
2023/04/03 15:04:01;;;;;;;1.73;0.30;;;;;;;;;;5303906;28;20024;-72
2023/04/03 15:06:32;;;;;;;1.35;0.40;;;;;;;;;;5303898;28;20012;-71
2023/04/03 15:09:03;;;;;;;2.50;0.32;;;;;;;;;;5303391;28;20097;-71
2023/04/03 15:11:35;;;;;;;1.05;0.32;;;;;;;;;;5303746;28;20077;-70
2023/04/03 15:14:08;;;;;;;1.98;0.63;;;;;;;;;;5303720;28;20012;-71
2023/04/03 15:16:39;;;;;;;2.78;0.70;;;;;;;;;;5302261;28;20036;-72
2023/04/03 15:19:10;;;;;;;1.67;0.25;;;;;;;;;;5303892;28;20358;-71
2023/04/03 15:21:42;;;;;;;2.47;0.30;;;;;;;;;;5303379;28;20370;-71